Time;durP1;ratioP1;P1;durP2;ratioP2;P2;SDS_P1;SDS_P2;PMS_P1;PMS_P2;Temp;Humidity;BMP_temperature;BMP_pressure;BME280_temperature;BME280_humidity;BME280_pressure;Samples;Min_cycle;Max_cycle;Signal;HPM_P1;HPM_P2
2022/01/26 00:07:43;;;;;;;95.72;32.85;;;3.30;99.90;;;;;;5057063;28;20041;-68
2022/01/26 00:10:09;;;;;;;96.20;34.50;;;3.30;99.90;;;;;;5053455;28;20114;-68
2022/01/26 00:12:35;;;;;;;98.93;33.08;;;3.30;99.90;;;;;;5054096;28;20606;-68
2022/01/26 00:15:00;;;;;;;102.53;33.92;;;3.30;99.90;;;;;;5054668;28;20056;-68
2022/01/26 00:17:26;;;;;;;99.30;33.80;;;3.30;99.90;;;;;;5059557;28;20102;-70
2022/01/26 00:38:46;;;;;;;92.85;32.47;;;3.20;99.90;;;;;;5053377;28;20044;-69
2022/01/26 00:41:18;;;;;;;108.20;35.92;;;3.20;99.90;;;;;;5053754;28;20106;-71
2022/01/26 00:43:51;;;;;;;105.47;35.05;;;3.20;99.90;;;;;;5056475;28;20081;-72
2022/01/26 00:46:18;;;;;;;102.95;35.90;;;3.20;99.90;;;;;;5054227;28;20056;-65
2022/01/26 00:48:44;;;;;;;104.03;35.13;;;3.20;99.90;;;;;;5054308;28;20041;-69
2022/01/26 00:51:14;;;;;;;95.78;33.03;;;3.20;99.90;;;;;;5052115;28;20414;-67
2022/01/26 00:53:45;;;;;;;102.55;34.97;;;3.20;99.90;;;;;;5054257;28;20049;-68
2022/01/26 00:56:11;;;;;;;101.00;34.65;;;3.20;99.90;;;;;;5050972;28;20041;-68
2022/01/26 00:58:37;;;;;;;101.45;33.53;;;3.20;99.90;;;;;;5050616;28;20046;-67
2022/01/26 01:01:04;;;;;;;97.82;33.65;;;3.20;99.90;;;;;;5054136;28;20041;-67
2022/01/26 01:03:33;;;;;;;107.03;35.67;;;3.20;99.90;;;;;;5053576;28;20047;-70
2022/01/26 01:06:09;;;;;;;101.95;35.78;;;3.20;99.90;;;;;;5068587;28;20094;-68
2022/01/26 01:08:35;;;;;;;96.60;32.67;;;3.20;99.90;;;;;;5053578;28;20055;-69
2022/01/26 01:11:01;;;;;;;102.25;34.30;;;3.20;99.90;;;;;;5083581;28;20045;-68
2022/01/26 01:13:35;;;;;;;100.03;33.17;;;3.20;99.90;;;;;;5055565;28;20100;-67
2022/01/26 01:16:01;;;;;;;103.22;35.63;;;3.20;99.90;;;;;;5056167;28;20135;-67
2022/01/26 01:21:29;;;;;;;105.55;36.13;;;3.20;99.90;;;;;;5053110;28;20136;-67
2022/01/26 01:34:29;;;;;;;98.20;32.85;;;3.20;99.90;;;;;;5054890;28;20063;-67
2022/01/26 01:37:01;;;;;;;103.43;35.47;;;3.20;99.90;;;;;;5050968;28;20052;-69
2022/01/26 01:39:26;;;;;;;118.55;35.03;;;3.20;99.90;;;;;;5052728;28;20063;-69
2022/01/26 01:41:52;;;;;;;100.43;33.38;;;3.20;99.90;;;;;;5054488;28;20474;-70
2022/01/26 01:44:18;;;;;;;94.80;34.33;;;3.20;99.90;;;;;;5056433;28;20076;-69
2022/01/26 01:46:44;;;;;;;97.97;33.83;;;3.20;99.90;;;;;;5054902;28;20395;-68
2022/01/26 01:49:12;;;;;;;100.15;33.40;;;3.10;99.90;;;;;;5050153;28;20923;-70
2022/01/26 01:51:42;;;;;;;101.85;33.55;;;3.10;99.90;;;;;;5052904;28;20114;-71
2022/01/26 01:54:14;;;;;;;97.40;30.95;;;3.10;99.90;;;;;;5082867;28;20033;-69
2022/01/26 01:56:43;;;;;;;95.50;32.58;;;3.10;99.90;;;;;;5053085;28;20041;-67
2022/01/26 01:59:09;;;;;;;92.60;31.95;;;3.20;99.90;;;;;;5055173;28;20493;-68
2022/01/26 02:01:35;;;;;;;99.05;33.53;;;3.20;99.90;;;;;;5054170;28;20430;-70
2022/01/26 02:04:01;;;;;;;91.75;33.00;;;3.10;99.90;;;;;;5053974;28;20057;-67
2022/01/26 02:06:27;;;;;;;94.30;33.45;;;3.10;99.90;;;;;;5049677;28;20037;-68
2022/01/26 02:08:53;;;;;;;99.22;33.35;;;3.10;99.90;;;;;;5053674;28;20105;-69
2022/01/26 02:11:18;;;;;;;100.18;34.00;;;3.10;99.90;;;;;;5054209;28;20049;-68
2022/01/26 02:14:07;;;;;;;94.78;33.58;;;3.10;99.90;;;;;;5052067;28;20044;-71
2022/01/26 02:16:46;;;;;;;95.93;32.13;;;3.10;99.90;;;;;;5085430;28;20135;-67
2022/01/26 02:57:52;;;;;;;103.10;34.38;;;3.10;99.90;;;;;;5014143;28;20053;-69
2022/01/26 03:00:26;;;;;;;99.45;35.00;;;3.10;99.90;;;;;;5050572;28;20110;-68
2022/01/26 03:02:59;;;;;;;109.93;34.88;;;3.00;99.90;;;;;;5056516;28;20052;-70
2022/01/26 03:05:31;;;;;;;105.28;34.97;;;3.00;99.90;;;;;;5057797;28;20051;-68
2022/01/26 03:08:02;;;;;;;109.03;35.67;;;3.10;99.90;;;;;;5056001;28;20058;-68
2022/01/26 03:15:35;;;;;;;103.55;35.60;;;3.10;99.90;;;;;;5053176;28;20433;-69
2022/01/26 03:20:47;;;;;;;106.68;34.85;;;3.00;99.90;;;;;;5085399;28;20505;-68
2022/01/26 03:28:46;;;;;;;109.35;36.47;;;3.00;99.90;;;;;;5057633;28;20089;-68
2022/01/26 03:34:10;;;;;;;97.38;35.58;;;3.30;99.90;;;;;;5043407;28;20067;-68
2022/01/26 03:36:47;;;;;;;101.85;33.97;;;3.00;99.90;;;;;;5052294;28;20070;-70
2022/01/26 03:39:16;;;;;;;103.47;36.13;;;3.00;99.90;;;;;;5053794;28;20037;-70
2022/01/26 03:41:51;;;;;;;106.88;34.13;;;3.00;99.90;;;;;;5057734;28;20124;-68
2022/01/26 03:44:18;;;;;;;103.68;34.60;;;3.00;99.90;;;;;;5058839;28;20040;-69
2022/01/26 03:46:48;;;;;;;95.72;34.00;;;3.10;99.90;;;;;;5054392;28;20041;-68
2022/01/26 03:49:14;;;;;;;103.38;34.95;;;3.00;99.90;;;;;;5051968;28;20033;-68
2022/01/26 03:51:41;;;;;;;107.72;36.08;;;3.00;99.90;;;;;;5055016;28;20398;-72
2022/01/26 03:54:07;;;;;;;102.20;34.90;;;3.00;99.90;;;;;;5055940;28;20033;-70
2022/01/26 03:56:34;;;;;;;98.40;33.95;;;3.00;99.90;;;;;;5054428;28;20048;-67
2022/01/26 03:59:00;;;;;;;102.85;34.80;;;3.00;99.90;;;;;;5052617;28;20037;-68
2022/01/26 04:01:26;;;;;;;90.18;32.85;;;3.00;99.90;;;;;;5056785;28;20132;-69
2022/01/26 04:03:52;;;;;;;91.57;32.10;;;3.00;99.90;;;;;;5056008;28;20120;-68
2022/01/26 04:06:18;;;;;;;98.20;34.78;;;3.00;99.90;;;;;;5053239;28;20039;-67
2022/01/26 04:08:45;;;;;;;99.97;34.40;;;3.00;99.90;;;;;;5056868;28;20132;-66
2022/01/26 04:13:41;;;;;;;87.88;31.35;;;3.00;99.90;;;;;;5053260;28;20049;-69
2022/01/26 04:16:07;;;;;;;90.43;31.98;;;3.00;99.90;;;;;;5058789;28;20037;-72
2022/01/26 04:18:37;;;;;;;102.13;32.33;;;3.00;99.90;;;;;;5056476;28;20095;-68
2022/01/26 04:21:14;;;;;;;85.78;31.27;;;3.00;99.90;;;;;;5054484;28;20049;-73
2022/01/26 04:24:06;;;;;;;93.07;32.22;;;2.90;99.90;;;;;;5053724;28;20052;-68
2022/01/26 04:26:38;;;;;;;91.93;31.13;;;2.90;99.90;;;;;;5055077;28;20063;-69
2022/01/26 04:29:09;;;;;;;85.80;30.50;;;2.90;99.90;;;;;;5059089;28;20072;-68
2022/01/26 04:31:35;;;;;;;89.53;31.95;;;2.90;99.90;;;;;;5057516;28;20048;-69
2022/01/26 04:34:01;;;;;;;81.13;29.67;;;2.90;99.90;;;;;;5055502;28;20032;-69
2022/01/26 04:36:42;;;;;;;85.85;30.38;;;2.90;99.90;;;;;;5053250;28;20043;-70
2022/01/26 04:39:12;;;;;;;77.78;28.60;;;2.90;99.90;;;;;;5057212;28;20049;-68
2022/01/26 04:41:53;;;;;;;80.53;29.58;;;2.90;99.90;;;;;;5051942;28;20040;-67
2022/01/26 04:44:25;;;;;;;83.93;29.92;;;2.90;99.90;;;;;;5051804;28;20053;-70
2022/01/26 04:46:52;;;;;;;86.93;31.67;;;2.90;99.90;;;;;;5054317;28;20116;-71
2022/01/26 04:49:18;;;;;;;88.90;31.27;;;2.90;99.90;;;;;;5052232;28;20049;-66
2022/01/26 04:51:44;;;;;;;83.78;29.45;;;2.90;99.90;;;;;;5055520;28;20068;-67
2022/01/26 04:54:10;;;;;;;83.32;29.45;;;2.90;99.90;;;;;;5053440;28;20071;-66
2022/01/26 04:56:36;;;;;;;74.80;28.33;;;2.90;99.90;;;;;;5049899;28;20049;-69
2022/01/26 04:59:02;;;;;;;87.07;30.92;;;2.80;99.90;;;;;;5051587;28;20136;-68
2022/01/26 05:01:28;;;;;;;91.07;30.35;;;2.80;99.90;;;;;;5033767;28;20443;-69
2022/01/26 05:03:53;;;;;;;73.55;28.63;;;2.80;99.90;;;;;;5054633;28;20064;-70
2022/01/26 05:06:19;;;;;;;82.55;28.60;;;2.90;99.90;;;;;;5056251;28;20136;-70
2022/01/26 05:08:45;;;;;;;86.78;30.08;;;2.80;99.90;;;;;;5053612;28;20115;-67
2022/01/26 05:11:14;;;;;;;84.82;30.00;;;2.80;99.90;;;;;;5051232;28;20203;-73
2022/01/26 05:13:40;;;;;;;82.45;29.48;;;2.80;99.90;;;;;;5056291;28;20055;-67
2022/01/26 05:16:08;;;;;;;81.13;28.38;;;2.80;99.90;;;;;;5052233;28;20048;-69
2022/01/26 05:18:34;;;;;;;78.75;28.17;;;2.80;99.90;;;;;;5056228;28;20059;-66
2022/01/26 05:21:00;;;;;;;86.30;30.70;;;2.80;99.90;;;;;;5052394;28;20052;-70
2022/01/26 05:23:25;;;;;;;78.22;29.65;;;2.80;99.90;;;;;;5052200;28;20651;-70
2022/01/26 05:25:52;;;;;;;85.10;29.85;;;2.80;99.90;;;;;;5056949;28;20066;-69
2022/01/26 05:28:17;;;;;;;80.10;27.55;;;2.80;99.90;;;;;;5052994;28;20067;-67
2022/01/26 05:31:09;;;;;;;82.65;28.75;;;2.80;99.90;;;;;;5093026;27;20392;-69
2022/01/26 05:33:35;;;;;;;78.95;29.23;;;2.70;99.90;;;;;;5083388;28;20044;-71
2022/01/26 05:36:01;;;;;;;78.50;28.23;;;2.70;99.90;;;;;;5076429;28;20043;-70
2022/01/26 05:38:26;;;;;;;82.10;29.38;;;2.70;99.90;;;;;;5078758;28;20517;-68
2022/01/26 05:40:55;;;;;;;80.72;28.08;;;2.70;99.90;;;;;;5081080;28;20071;-67
2022/01/26 05:43:20;;;;;;;;;;;2.70;99.90;;;;;;5083059;28;20059;-67
2022/01/26 05:45:50;;;;;;;74.68;27.30;;;2.80;99.90;;;;;;5079275;28;20377;-68
2022/01/26 05:48:15;;;;;;;74.10;26.40;;;2.70;99.90;;;;;;5056840;28;20048;-68
2022/01/26 05:50:50;;;;;;;73.55;25.48;;;2.70;99.90;;;;;;5078792;28;20110;-68
2022/01/26 05:53:17;;;;;;;80.05;28.35;;;2.70;99.90;;;;;;5075170;28;20478;-69
2022/01/26 05:55:43;;;;;;;72.18;25.95;;;2.70;99.90;;;;;;5077748;28;20040;-68
2022/01/26 05:58:09;;;;;;;77.72;27.73;;;2.70;99.90;;;;;;5078724;28;20048;-67
2022/01/26 06:00:36;;;;;;;76.03;26.88;;;2.70;99.90;;;;;;5076230;28;20096;-68
2022/01/26 06:03:01;;;;;;;74.25;26.83;;;2.70;99.90;;;;;;5078798;28;20037;-71
2022/01/26 06:05:27;;;;;;;71.22;26.70;;;2.70;99.90;;;;;;5079525;28;20101;-67
2022/01/26 06:07:53;;;;;;;81.07;27.38;;;2.70;99.90;;;;;;5082338;28;20040;-66
2022/01/26 06:10:18;;;;;;;71.95;26.33;;;2.70;99.90;;;;;;5078668;28;20036;-67
2022/01/26 06:12:47;;;;;;;67.68;26.52;;;2.70;99.90;;;;;;5079942;28;20094;-67
2022/01/26 06:15:15;;;;;;;72.75;27.10;;;2.80;99.90;;;;;;5078813;28;20041;-68
2022/01/26 06:17:41;;;;;;;74.97;27.85;;;2.70;99.90;;;;;;5078695;28;20110;-67
2022/01/26 06:20:07;;;;;;;72.63;26.50;;;2.70;99.90;;;;;;5080801;28;20056;-67
2022/01/26 06:22:33;;;;;;;72.68;25.40;;;2.80;99.90;;;;;;5079241;28;20041;-69
2022/01/26 06:25:04;;;;;;;68.03;25.52;;;2.70;99.90;;;;;;5079397;28;20051;-66
2022/01/26 06:27:30;;;;;;;75.10;25.83;;;2.70;99.90;;;;;;5077950;28;20054;-66
2022/01/26 06:29:56;;;;;;;77.03;25.15;;;2.80;99.90;;;;;;5074433;28;20040;-66
2022/01/26 06:32:21;;;;;;;78.88;27.98;;;2.80;99.90;;;;;;5077287;28;20052;-67
2022/01/26 06:34:47;;;;;;;80.63;28.70;;;2.70;99.90;;;;;;5077559;28;20131;-67
2022/01/26 06:37:15;;;;;;;70.63;26.30;;;2.80;99.90;;;;;;5077903;28;20124;-67
2022/01/26 06:39:41;;;;;;;72.40;27.33;;;2.80;99.90;;;;;;5073698;28;20048;-67
2022/01/26 06:42:13;;;;;;;73.95;27.70;;;2.80;99.90;;;;;;5068370;28;20087;-68
2022/01/26 06:44:50;;;;;;;76.15;29.27;;;2.80;99.90;;;;;;5063357;28;20470;-67
2022/01/26 06:47:32;;;;;;;85.38;28.48;;;2.80;99.90;;;;;;5069032;28;20199;-67
2022/01/26 06:49:57;;;;;;;72.55;27.10;;;2.80;99.90;;;;;;5060705;28;20043;-66
2022/01/26 06:52:23;;;;;;;76.43;27.90;;;2.80;99.90;;;;;;5061174;28;20045;-67
2022/01/26 06:54:48;;;;;;;76.45;28.42;;;2.80;99.90;;;;;;5060085;28;20047;-70
2022/01/26 06:57:14;;;;;;;81.57;29.50;;;2.80;99.90;;;;;;5062693;28;20053;-68
2022/01/26 06:59:43;;;;;;;79.72;29.73;;;2.80;99.90;;;;;;5062446;28;20048;-67
2022/01/26 07:02:08;;;;;;;71.88;28.45;;;2.80;99.90;;;;;;5062519;28;20048;-66
2022/01/26 07:04:34;;;;;;;90.00;30.67;;;2.80;99.90;;;;;;5063468;28;20036;-68
2022/01/26 07:06:59;;;;;;;83.25;30.45;;;2.80;99.90;;;;;;5065671;28;20033;-72
2022/01/26 07:09:25;;;;;;;81.03;30.15;;;4.10;99.90;;;;;;5062526;28;20135;-68
2022/01/26 07:11:50;;;;;;;76.10;28.88;;;2.80;99.90;;;;;;5064386;28;20048;-67
2022/01/26 07:19:46;;;;;;;78.45;29.95;;;2.80;99.90;;;;;;5071124;28;20041;-68
2022/01/26 07:22:17;;;;;;;79.28;28.90;;;2.80;99.90;;;;;;5064482;28;20529;-67
2022/01/26 07:24:43;;;;;;;80.93;29.02;;;2.80;99.90;;;;;;5044641;28;20090;-67
2022/01/26 07:27:10;;;;;;;83.38;31.15;;;2.90;99.90;;;;;;5063298;28;20121;-67
2022/01/26 07:29:36;;;;;;;86.18;30.80;;;2.90;99.90;;;;;;5071323;28;20591;-67
2022/01/26 07:32:05;;;;;;;81.97;30.75;;;2.90;99.90;;;;;;5059774;28;20053;-68
2022/01/26 07:34:31;;;;;;;86.70;31.80;;;2.90;99.90;;;;;;5061726;28;20442;-66
2022/01/26 07:37:01;;;;;;;83.05;31.13;;;2.90;99.90;;;;;;5062198;28;20041;-67
2022/01/26 07:39:42;;;;;;;85.88;32.47;;;2.90;99.90;;;;;;5070926;28;20116;-66
2022/01/26 07:42:09;;;;;;;85.85;32.70;;;2.90;99.90;;;;;;5073456;28;20492;-67
2022/01/26 07:44:35;;;;;;;88.17;32.33;;;2.90;99.90;;;;;;5073171;28;20132;-67
2022/01/26 07:47:01;;;;;;;86.35;32.78;;;2.90;99.90;;;;;;5072893;28;20119;-67
2022/01/26 07:49:26;;;;;;;82.72;31.10;;;2.90;99.90;;;;;;5059400;28;20073;-67
2022/01/26 07:51:52;;;;;;;79.32;28.67;;;2.90;99.90;;;;;;5072473;28;20052;-67
2022/01/26 07:54:21;;;;;;;83.38;32.08;;;3.00;99.90;;;;;;5065950;28;20399;-66
2022/01/26 07:56:47;;;;;;;90.70;34.83;;;3.00;99.90;;;;;;5066361;28;20041;-67
2022/01/26 07:59:13;;;;;;;90.13;33.25;;;3.00;99.90;;;;;;5071759;28;20044;-67
2022/01/26 08:01:38;;;;;;;84.80;32.33;;;3.00;99.90;;;;;;5065366;28;20565;-66
2022/01/26 08:04:04;;;;;;;88.13;34.17;;;3.00;99.90;;;;;;5064009;28;20471;-67
2022/01/26 08:06:30;;;;;;;80.22;33.13;;;3.00;99.90;;;;;;5073918;28;20044;-67
2022/01/26 08:08:56;;;;;;;93.53;33.30;;;3.00;99.90;;;;;;5071675;28;20040;-67
2022/01/26 08:11:24;;;;;;;90.40;35.33;;;3.00;99.90;;;;;;5069027;28;20032;-67
2022/01/26 08:13:50;;;;;;;92.82;32.97;;;3.00;99.90;;;;;;5067019;28;20075;-65
2022/01/26 08:16:16;;;;;;;93.00;35.15;;;3.00;99.90;;;;;;5052592;28;20407;-66
2022/01/26 08:18:41;;;;;;;92.45;35.05;;;3.10;99.90;;;;;;5058262;28;20052;-67
2022/01/26 08:21:09;;;;;;;92.13;35.00;;;3.10;99.90;;;;;;5070364;28;20059;-67
2022/01/26 08:23:36;;;;;;;93.78;36.08;;;3.10;99.90;;;;;;5067790;28;20053;-66
2022/01/26 08:26:02;;;;;;;101.05;35.45;;;3.10;99.90;;;;;;5072376;28;20040;-66
2022/01/26 08:28:35;;;;;;;94.68;35.05;;;3.10;99.90;;;;;;5071178;28;20076;-67
2022/01/26 08:31:00;;;;;;;92.55;35.35;;;3.10;99.90;;;;;;5063186;28;20059;-71
2022/01/26 08:33:26;;;;;;;97.93;35.35;;;3.20;99.90;;;;;;5069424;28;20049;-68
2022/01/26 08:35:52;;;;;;;97.68;37.40;;;3.20;99.90;;;;;;5059305;28;20098;-67
2022/01/26 08:38:19;;;;;;;93.78;37.45;;;3.20;99.90;;;;;;5067881;28;20040;-68
2022/01/26 08:40:46;;;;;;;101.72;37.60;;;3.20;99.90;;;;;;5069031;28;20045;-67
2022/01/26 08:43:13;;;;;;;94.50;35.55;;;3.20;99.90;;;;;;5067832;28;20098;-68
2022/01/26 08:45:39;;;;;;;100.57;36.78;;;3.20;99.90;;;;;;5068000;28;20415;-66
2022/01/26 08:48:05;;;;;;;102.57;37.53;;;3.20;99.90;;;;;;5067761;28;20391;-67
2022/01/26 08:50:31;;;;;;;98.28;38.70;;;3.20;99.90;;;;;;5063788;28;20044;-68
2022/01/26 08:52:57;;;;;;;96.47;37.63;;;4.30;99.90;;;;;;5063284;28;20149;-67
2022/01/26 08:55:23;;;;;;;94.50;38.55;;;3.30;99.90;;;;;;5067186;28;20434;-66
2022/01/26 08:57:48;;;;;;;99.18;38.90;;;3.30;99.90;;;;;;5067043;28;20052;-71
2022/01/26 09:00:16;;;;;;;98.10;37.95;;;3.30;99.90;;;;;;5060678;28;20036;-68
2022/01/26 09:02:43;;;;;;;98.60;39.78;;;3.30;99.90;;;;;;5065327;28;20079;-69
2022/01/26 09:05:09;;;;;;;100.97;39.47;;;3.30;99.90;;;;;;5065127;28;20636;-66
2022/01/26 09:07:35;;;;;;;101.03;39.03;;;3.30;99.90;;;;;;5063659;28;20106;-67
2022/01/26 09:10:03;;;;;;;102.68;38.08;;;3.30;99.90;;;;;;5064845;28;20070;-67
2022/01/26 09:12:30;;;;;;;101.78;38.67;;;3.40;99.90;;;;;;5068486;28;20102;-67
2022/01/26 09:15:00;;;;;;;91.05;34.15;;;3.40;99.90;;;;;;5070453;28;20119;-67
2022/01/26 09:17:27;;;;;;;98.13;39.15;;;3.40;99.90;;;;;;5068775;28;20142;-67
2022/01/26 09:19:56;;;;;;;104.55;40.25;;;3.40;99.90;;;;;;5069808;28;20502;-67
2022/01/26 09:22:21;;;;;;;94.93;37.30;;;3.60;99.90;;;;;;5046300;28;20040;-66
2022/01/26 09:24:47;;;;;;;94.35;37.80;;;3.50;99.90;;;;;;5067030;28;20050;-66
2022/01/26 09:27:17;;;;;;;98.18;38.20;;;3.50;99.90;;;;;;5069389;28;20041;-69
2022/01/26 09:29:43;;;;;;;95.50;37.35;;;3.50;99.90;;;;;;5065054;28;20144;-67
2022/01/26 09:32:11;;;;;;;103.97;40.58;;;3.50;99.90;;;;;;5064490;28;20101;-67
2022/01/26 09:34:37;;;;;;;98.10;37.97;;;3.50;99.90;;;;;;5068384;28;20064;-68
2022/01/26 09:37:08;;;;;;;97.72;39.78;;;3.50;99.90;;;;;;5069086;28;20059;-66
2022/01/26 09:39:34;;;;;;;89.72;36.58;;;3.60;99.90;;;;;;5065433;28;20499;-66
2022/01/26 09:42:00;;;;;;;101.30;40.28;;;3.60;99.90;;;;;;5070050;28;20053;-66
2022/01/26 09:44:28;;;;;;;95.28;38.58;;;3.60;99.90;;;;;;5069560;28;20045;-66
2022/01/26 09:46:54;;;;;;;88.25;37.30;;;3.70;99.90;;;;;;5063778;28;20499;-67
2022/01/26 09:49:20;;;;;;;92.38;37.03;;;3.70;99.90;;;;;;5067052;28;20111;-67
2022/01/26 09:51:49;;;;;;;88.20;36.97;;;3.70;99.90;;;;;;5062173;28;20045;-68
2022/01/26 09:54:18;;;;;;;92.32;36.33;;;3.80;99.90;;;;;;5057727;28;20070;-68
2022/01/26 09:56:46;;;;;;;;;;;3.80;99.90;;;;;;5064059;28;20036;-67
2022/01/26 09:59:11;;;;;;;84.75;34.45;;;3.80;99.90;;;;;;5070356;28;19920;-66
2022/01/26 10:01:49;;;;;;;91.60;36.15;;;3.80;99.90;;;;;;5064842;28;20094;-67
2022/01/26 10:04:24;;;;;;;82.63;35.28;;;3.80;99.90;;;;;;5064688;28;20036;-67
2022/01/26 10:07:26;;;;;;;87.25;34.70;;;3.90;99.90;;;;;;5063520;28;20757;-68
2022/01/26 10:10:06;;;;;;;88.80;35.05;;;3.90;99.90;;;;;;5060796;28;20557;-68
2022/01/26 10:15:48;;;;;;;83.40;35.78;;;4.00;99.90;;;;;;5061099;28;20110;-66
2022/01/26 10:18:20;;;;;;;85.43;33.22;;;4.00;99.90;;;;;;5066891;28;20044;-66
2022/01/26 10:20:54;;;;;;;94.45;36.97;;;4.10;99.90;;;;;;5068292;28;20048;-68
2022/01/26 10:23:35;;;;;;;82.15;32.45;;;4.00;99.90;;;;;;5071234;28;20045;-68
2022/01/26 10:26:13;;;;;;;82.85;33.40;;;4.10;99.90;;;;;;5069061;28;20058;-68
2022/01/26 10:28:51;;;;;;;81.27;33.93;;;4.10;99.90;;;;;;5066055;28;20084;-67
2022/01/26 10:31:37;;;;;;;80.88;33.40;;;4.10;99.90;;;;;;5064328;28;20056;-67
2022/01/26 10:34:06;;;;;;;82.97;35.40;;;4.10;99.90;;;;;;5067949;28;20072;-68
2022/01/26 10:36:37;;;;;;;76.72;32.63;;;4.10;99.90;;;;;;5066449;28;20060;-68
2022/01/26 10:39:19;;;;;;;80.70;33.25;;;4.10;99.90;;;;;;5069088;28;20479;-67
2022/01/26 10:41:45;;;;;;;77.93;34.10;;;4.20;99.90;;;;;;5071197;28;20782;-68
2022/01/26 10:44:11;;;;;;;80.78;32.72;;;4.20;99.90;;;;;;5069962;28;20131;-67
2022/01/26 10:46:41;;;;;;;83.07;33.03;;;4.20;99.90;;;;;;5063758;28;20437;-68
2022/01/26 10:49:31;;;;;;;73.60;31.98;;;4.50;99.90;;;;;;5070536;28;20399;-68
2022/01/26 10:52:01;;;;;;;74.40;32.58;;;4.20;99.90;;;;;;5071832;28;20713;-69
2022/01/26 10:54:37;;;;;;;73.65;31.02;;;4.30;99.90;;;;;;5062218;28;20482;-69
2022/01/26 10:57:08;;;;;;;79.60;30.25;;;4.60;99.90;;;;;;5069846;28;20079;-68
2022/01/26 10:59:41;;;;;;;67.60;29.48;;;4.30;99.90;;;;;;5069883;28;20446;-67
2022/01/26 11:02:09;;;;;;;72.38;29.88;;;4.30;99.90;;;;;;5070920;28;20074;-68
2022/01/26 11:04:37;;;;;;;74.07;29.33;;;4.30;99.90;;;;;;5067073;28;20433;-71
2022/01/26 11:07:06;;;;;;;71.25;29.15;;;4.30;99.90;;;;;;5062471;28;20406;-68
2022/01/26 11:09:33;;;;;;;;;;;4.30;99.90;;;;;;5070437;28;20048;-68
2022/01/26 11:12:10;;;;;;;71.93;29.38;;;4.30;99.90;;;;;;5065603;28;20355;-69
2022/01/26 11:14:39;;;;;;;76.80;28.52;;;4.40;99.90;;;;;;5070408;28;20037;-70
2022/01/26 11:17:04;;;;;;;73.18;30.20;;;4.40;99.90;;;;;;5068425;28;20123;-68
2022/01/26 11:19:40;;;;;;;69.68;28.00;;;4.30;99.90;;;;;;5069946;28;20131;-67
2022/01/26 11:22:11;;;;;;;79.63;30.05;;;4.30;99.90;;;;;;5070423;28;20046;-68
2022/01/26 11:24:48;;;;;;;77.53;28.73;;;4.30;99.90;;;;;;5069890;28;20177;-70
2022/01/26 11:27:16;;;;;;;74.07;29.60;;;4.30;99.90;;;;;;5070065;28;20047;-69
2022/01/26 11:29:46;;;;;;;83.05;31.40;;;4.30;99.90;;;;;;5066824;28;20057;-70
2022/01/26 11:32:39;;;;;;;80.93;29.63;;;4.30;99.90;;;;;;5070809;28;20041;-69
2022/01/26 11:35:08;;;;;;;75.13;29.75;;;4.30;99.90;;;;;;5069151;28;20048;-68
2022/01/26 11:37:41;;;;;;;71.15;27.20;;;4.40;99.90;;;;;;5069046;28;20450;-68
2022/01/26 11:45:34;;;;;;;81.72;29.08;;;4.50;99.90;;;;;;5066607;28;20525;-68
2022/01/26 11:48:10;;;;;;;72.50;28.55;;;5.20;99.90;;;;;;5059461;28;20040;-70
2022/01/26 11:50:47;;;;;;;69.07;28.00;;;4.60;99.90;;;;;;5063478;28;20062;-69
2022/01/26 11:53:16;;;;;;;78.13;30.50;;;4.60;99.90;;;;;;5067413;28;20045;-67
2022/01/26 11:55:48;;;;;;;69.72;28.35;;;4.60;99.90;;;;;;5063967;28;20037;-68
2022/01/26 11:58:34;;;;;;;74.78;27.95;;;4.60;99.90;;;;;;5046846;28;20053;-70
2022/01/26 12:01:21;;;;;;;76.97;30.30;;;4.60;99.90;;;;;;5065548;28;20059;-68
2022/01/26 12:04:01;;;;;;;76.03;29.88;;;4.50;99.90;;;;;;5058379;28;20463;-68
2022/01/26 12:06:37;;;;;;;84.18;29.05;;;4.50;99.90;;;;;;5060832;28;20040;-72
2022/01/26 12:09:06;;;;;;;77.45;30.27;;;4.60;99.90;;;;;;5060676;28;20414;-70
2022/01/26 12:11:32;;;;;;;88.95;30.90;;;4.60;99.90;;;;;;5059386;28;20132;-70
2022/01/26 12:14:06;;;;;;;81.05;29.63;;;4.60;99.90;;;;;;5062012;28;20466;-70
2022/01/26 12:16:37;;;;;;;76.13;30.92;;;4.60;99.90;;;;;;5057741;28;20076;-70
2022/01/26 12:35:58;;;;;;;78.72;30.73;;;5.10;99.90;;;;;;5057301;28;20055;-69
2022/01/26 12:38:40;;;;;;;85.50;30.80;;;4.60;99.90;;;;;;5058706;28;20043;-74
2022/01/26 12:41:26;;;;;;;76.97;29.27;;;4.60;99.90;;;;;;5064749;28;20044;-70
2022/01/26 12:44:12;;;;;;;81.93;30.67;;;4.60;99.90;;;;;;5059697;28;20479;-70
2022/01/26 12:46:39;;;;;;;77.07;31.10;;;4.60;99.90;;;;;;5059127;28;20044;-70
2022/01/26 12:49:07;;;;;;;81.47;31.33;;;4.60;99.90;;;;;;5059687;28;20422;-69
2022/01/26 12:51:44;;;;;;;72.30;29.10;;;4.60;99.90;;;;;;5060852;28;20065;-71
2022/01/26 12:54:10;;;;;;;79.68;30.38;;;4.60;99.90;;;;;;5060066;28;20044;-71
2022/01/26 12:56:36;;;;;;;78.68;31.60;;;4.60;99.90;;;;;;5060115;28;20044;-71
2022/01/26 12:59:09;;;;;;;83.53;30.38;;;4.60;99.90;;;;;;5058352;28;20390;-69
2022/01/26 13:01:37;;;;;;;79.03;30.17;;;4.70;99.90;;;;;;5060868;28;20409;-69
2022/01/26 13:04:05;;;;;;;78.75;30.23;;;4.70;99.90;;;;;;5060715;28;20045;-71
2022/01/26 13:06:38;;;;;;;82.38;31.00;;;4.70;99.90;;;;;;5060724;28;20115;-70
2022/01/26 13:09:26;;;;;;;70.80;30.20;;;4.80;99.90;;;;;;5057685;28;20237;-68
2022/01/26 13:11:55;;;;;;;78.78;30.33;;;4.70;99.90;;;;;;5061618;28;20052;-72
2022/01/26 13:14:32;;;;;;;72.88;29.40;;;4.80;99.90;;;;;;5059755;28;20056;-69
2022/01/26 13:17:10;;;;;;;74.88;30.52;;;4.80;99.90;;;;;;5063828;28;20056;-69
2022/01/26 13:22:39;;;;;;;84.43;33.20;;;4.90;99.90;;;;;;5060610;28;20068;-66
2022/01/26 13:25:18;;;;;;;78.57;29.57;;;4.90;99.90;;;;;;5060069;28;20052;-69
2022/01/26 13:30:44;;;;;;;77.60;28.85;;;5.00;99.90;;;;;;5065911;28;20049;-69
2022/01/26 13:38:13;;;;;;;69.20;28.15;;;5.10;99.90;;;;;;5061145;28;20048;-68
2022/01/26 13:40:54;;;;;;;73.70;29.85;;;5.10;99.90;;;;;;5059229;28;20048;-69
2022/01/26 13:59:32;;;;;;;62.88;25.88;;;5.20;99.90;;;;;;5066955;28;20056;-69
2022/01/26 14:01:59;;;;;;;63.70;27.77;;;5.20;99.90;;;;;;5062669;28;20056;-70
2022/01/26 14:04:24;;;;;;;74.40;27.25;;;5.20;99.90;;;;;;5057405;28;20052;-70
2022/01/26 14:06:50;;;;;;;64.85;26.42;;;5.20;99.90;;;;;;5065065;28;20491;-70
2022/01/26 14:09:16;;;;;;;67.65;25.25;;;5.20;99.90;;;;;;5064563;28;20471;-69
2022/01/26 14:11:48;;;;;;;59.92;25.40;;;5.30;99.90;;;;;;5064293;28;20075;-69
2022/01/26 14:14:21;;;;;;;68.55;26.73;;;5.30;99.90;;;;;;5070650;28;20090;-67
2022/01/26 14:16:56;;;;;;;62.60;25.65;;;5.30;99.90;;;;;;5069542;28;20048;-70
2022/01/26 14:19:29;;;;;;;57.22;24.85;;;5.30;99.90;;;;;;5065040;28;20163;-69
2022/01/26 14:24:28;;;;;;;57.22;24.88;;;5.30;99.90;;;;;;5065999;28;20048;-68
2022/01/26 14:26:58;;;;;;;66.75;25.02;;;5.30;99.90;;;;;;5065728;28;20120;-69
2022/01/26 14:29:38;;;;;;;62.30;24.77;;;5.30;99.90;;;;;;5065661;28;20056;-69
2022/01/26 14:40:10;;;;;;;63.20;24.88;;;5.40;99.90;;;;;;5071353;28;20048;-67
2022/01/26 15:10:55;;;;;;;62.80;25.90;;;5.40;99.90;;;;;;5064994;28;20384;-68
2022/01/26 15:42:44;;;;;;;68.40;25.92;;;5.30;99.90;;;;;;5067110;28;20048;-70
2022/01/26 16:07:00;;;;;;;63.38;25.77;;;5.30;99.90;;;;;;5073059;28;20060;-69
2022/01/26 16:35:11;;;;;;;66.38;25.10;;;5.40;99.90;;;;;;5064185;28;19932;-70
2022/01/26 16:53:31;;;;;;;57.35;24.50;;;5.30;99.90;;;;;;5067759;28;20045;-69
2022/01/26 18:26:47;;;;;;;54.47;21.40;;;5.60;99.90;;;;;;5065593;28;20048;-68
2022/01/26 18:50:51;;;;;;;49.28;19.48;;;5.80;99.90;;;;;;5074773;28;20074;-68
2022/01/26 18:53:17;;;;;;;46.83;18.70;;;5.80;99.90;;;;;;5071033;28;20554;-67
2022/01/26 18:55:42;;;;;;;43.80;18.30;;;5.80;99.90;;;;;;5071507;28;20083;-67
2022/01/26 18:58:08;;;;;;;40.70;19.83;;;5.80;99.90;;;;;;5073449;28;20195;-70
2022/01/26 19:00:34;;;;;;;41.25;18.77;;;5.80;99.90;;;;;;5070358;28;20041;-66
2022/01/26 19:03:00;;;;;;;43.08;18.85;;;5.80;99.90;;;;;;5074369;28;20044;-69
2022/01/26 19:05:27;;;;;;;37.65;17.67;;;5.90;99.90;;;;;;5077577;28;20048;-68
2022/01/26 19:07:54;;;;;;;44.35;19.40;;;5.90;99.90;;;;;;5072468;28;20503;-68
2022/01/26 19:10:20;;;;;;;45.92;18.35;;;5.90;99.90;;;;;;5065241;28;20049;-69
2022/01/26 19:12:46;;;;;;;42.47;19.25;;;5.90;99.90;;;;;;5069131;28;20048;-68
2022/01/26 19:15:16;;;;;;;37.17;17.92;;;5.90;99.90;;;;;;5070663;28;20490;-68
2022/01/26 19:18:03;;;;;;;47.95;19.00;;;5.90;99.90;;;;;;5069448;28;20043;-68
2022/01/26 19:25:54;;;;;;;45.00;18.15;;;5.90;99.90;;;;;;5076436;28;20097;-68
2022/01/26 19:51:57;;;;;;;36.70;17.65;;;6.00;99.90;;;;;;5077069;28;20528;-68
2022/01/26 19:54:26;;;;;;;48.90;19.83;;;6.00;99.90;;;;;;5073135;28;20093;-68